sensor_id;sensor_type;location;lat;lon;timestamp;pressure;altitude;pressure_sealevel;temperature;humidity
8941;BME280;4505;43.406;23.226;2022-11-15T00:00:30;100724.69;;;7.74;100.00
8941;BME280;4505;43.406;23.226;2022-11-15T00:02:57;100723.47;;;7.70;100.00
8941;BME280;4505;43.406;23.226;2022-11-15T00:05:24;100726.94;;;7.71;100.00
8941;BME280;4505;43.406;23.226;2022-11-15T00:07:50;100727.63;;;8.28;100.00
8941;BME280;4505;43.406;23.226;2022-11-15T00:10:18;100722.81;;;8.38;100.00
8941;BME280;4505;43.406;23.226;2022-11-15T00:12:45;100720.72;;;8.33;100.00
8941;BME280;4505;43.406;23.226;2022-11-15T00:15:15;100717.56;;;8.44;100.00
8941;BME280;4505;43.406;23.226;2022-11-15T00:17:41;100721.41;;;8.21;100.00
8941;BME280;4505;43.406;23.226;2022-11-15T00:20:09;100718.41;;;8.24;100.00
8941;BME280;4505;43.406;23.226;2022-11-15T00:22:36;100708.03;;;8.01;100.00
8941;BME280;4505;43.406;23.226;2022-11-15T00:25:17;100717.63;;;8.02;100.00
8941;BME280;4505;43.406;23.226;2022-11-15T00:27:44;100717.47;;;8.31;100.00
8941;BME280;4505;43.406;23.226;2022-11-15T00:30:11;100710.78;;;8.14;100.00
8941;BME280;4505;43.406;23.226;2022-11-15T00:32:38;100710.38;;;8.11;100.00
8941;BME280;4505;43.406;23.226;2022-11-15T00:35:05;100713.63;;;8.13;100.00
8941;BME280;4505;43.406;23.226;2022-11-15T00:37:32;100709.34;;;7.84;100.00
8941;BME280;4505;43.406;23.226;2022-11-15T00:39:58;100709.31;;;8.05;100.00
8941;BME280;4505;43.406;23.226;2022-11-15T00:42:25;100700.69;;;7.97;100.00
8941;BME280;4505;43.406;23.226;2022-11-15T00:44:53;100707.91;;;7.82;100.00
8941;BME280;4505;43.406;23.226;2022-11-15T00:47:19;100710.97;;;8.13;100.00
8941;BME280;4505;43.406;23.226;2022-11-15T00:49:46;100704.47;;;8.36;100.00
8941;BME280;4505;43.406;23.226;2022-11-15T00:52:13;100699.69;;;8.59;100.00
8941;BME280;4505;43.406;23.226;2022-11-15T00:54:39;100700.09;;;8.56;100.00
8941;BME280;4505;43.406;23.226;2022-11-15T00:57:06;100701.00;;;8.70;100.00
8941;BME280;4505;43.406;23.226;2022-11-15T00:59:32;100696.09;;;8.67;100.00
8941;BME280;4505;43.406;23.226;2022-11-15T01:02:00;100690.69;;;8.47;100.00
8941;BME280;4505;43.406;23.226;2022-11-15T01:04:27;100687.59;;;8.16;100.00
8941;BME280;4505;43.406;23.226;2022-11-15T01:06:54;100687.28;;;8.26;100.00
8941;BME280;4505;43.406;23.226;2022-11-15T01:09:20;100681.91;;;8.19;100.00
8941;BME280;4505;43.406;23.226;2022-11-15T01:11:47;100689.34;;;8.30;100.00
8941;BME280;4505;43.406;23.226;2022-11-15T01:14:14;100677.97;;;8.30;100.00
8941;BME280;4505;43.406;23.226;2022-11-15T01:16:40;100678.22;;;8.35;100.00
8941;BME280;4505;43.406;23.226;2022-11-15T01:19:08;100679.19;;;8.34;100.00
8941;BME280;4505;43.406;23.226;2022-11-15T01:21:35;100673.97;;;8.47;100.00
8941;BME280;4505;43.406;23.226;2022-11-15T01:24:01;100681.38;;;8.58;100.00
8941;BME280;4505;43.406;23.226;2022-11-15T01:26:28;100677.94;;;8.70;100.00
8941;BME280;4505;43.406;23.226;2022-11-15T01:28:55;100676.53;;;8.68;100.00
8941;BME280;4505;43.406;23.226;2022-11-15T01:31:21;100680.22;;;8.80;100.00
8941;BME280;4505;43.406;23.226;2022-11-15T01:33:48;100676.41;;;8.89;100.00
8941;BME280;4505;43.406;23.226;2022-11-15T01:36:17;100674.16;;;8.86;100.00
8941;BME280;4505;43.406;23.226;2022-11-15T01:38:44;100672.31;;;8.87;100.00
8941;BME280;4505;43.406;23.226;2022-11-15T01:41:18;100673.34;;;8.86;100.00
8941;BME280;4505;43.406;23.226;2022-11-15T01:43:46;100668.06;;;8.92;100.00
8941;BME280;4505;43.406;23.226;2022-11-15T01:46:18;100666.13;;;8.66;100.00
8941;BME280;4505;43.406;23.226;2022-11-15T01:48:49;100669.28;;;8.42;100.00
8941;BME280;4505;43.406;23.226;2022-11-15T01:51:17;100657.56;;;8.24;100.00
8941;BME280;4505;43.406;23.226;2022-11-15T01:53:47;100667.25;;;8.44;100.00
8941;BME280;4505;43.406;23.226;2022-11-15T01:56:16;100663.56;;;8.39;100.00
8941;BME280;4505;43.406;23.226;2022-11-15T01:58:43;100662.66;;;8.66;100.00
8941;BME280;4505;43.406;23.226;2022-11-15T02:01:11;100655.41;;;8.81;100.00
8941;BME280;4505;43.406;23.226;2022-11-15T02:03:39;100657.66;;;8.91;100.00
8941;BME280;4505;43.406;23.226;2022-11-15T02:06:08;100649.47;;;8.79;100.00
8941;BME280;4505;43.406;23.226;2022-11-15T02:08:36;100655.03;;;8.91;100.00
8941;BME280;4505;43.406;23.226;2022-11-15T02:11:04;100648.28;;;8.88;100.00
8941;BME280;4505;43.406;23.226;2022-11-15T02:13:30;100645.81;;;8.87;100.00
8941;BME280;4505;43.406;23.226;2022-11-15T02:15:58;100640.34;;;8.95;100.00
8941;BME280;4505;43.406;23.226;2022-11-15T02:18:28;100643.81;;;8.89;100.00
8941;BME280;4505;43.406;23.226;2022-11-15T02:29:40;100650.47;;;8.72;100.00
8941;BME280;4505;43.406;23.226;2022-11-15T02:32:14;100642.78;;;8.83;100.00
8941;BME280;4505;43.406;23.226;2022-11-15T02:34:47;100641.31;;;8.74;100.00
8941;BME280;4505;43.406;23.226;2022-11-15T02:37:18;100637.84;;;8.73;100.00
8941;BME280;4505;43.406;23.226;2022-11-15T02:39:49;100637.63;;;8.68;100.00
8941;BME280;4505;43.406;23.226;2022-11-15T02:42:19;100635.44;;;8.92;100.00
8941;BME280;4505;43.406;23.226;2022-11-15T02:45:06;100632.34;;;8.68;100.00
8941;BME280;4505;43.406;23.226;2022-11-15T02:47:37;100626.28;;;8.81;100.00
8941;BME280;4505;43.406;23.226;2022-11-15T02:50:06;100628.34;;;8.92;100.00
8941;BME280;4505;43.406;23.226;2022-11-15T02:52:34;100625.69;;;8.92;100.00
8941;BME280;4505;43.406;23.226;2022-11-15T02:55:01;100624.84;;;8.92;100.00
8941;BME280;4505;43.406;23.226;2022-11-15T02:57:30;100625.28;;;9.02;100.00
8941;BME280;4505;43.406;23.226;2022-11-15T03:00:04;100627.34;;;9.13;100.00
8941;BME280;4505;43.406;23.226;2022-11-15T03:02:36;100616.09;;;8.98;100.00
8941;BME280;4505;43.406;23.226;2022-11-15T03:05:09;100625.09;;;9.03;100.00
8941;BME280;4505;43.406;23.226;2022-11-15T03:07:43;100624.66;;;9.00;100.00
8941;BME280;4505;43.406;23.226;2022-11-15T03:10:12;100622.63;;;8.89;100.00
8941;BME280;4505;43.406;23.226;2022-11-15T03:12:45;100629.53;;;8.90;100.00
8941;BME280;4505;43.406;23.226;2022-11-15T03:15:15;100620.16;;;8.87;100.00
8941;BME280;4505;43.406;23.226;2022-11-15T03:17:46;100624.25;;;8.96;100.00
8941;BME280;4505;43.406;23.226;2022-11-15T03:20:16;100624.06;;;8.91;100.00
8941;BME280;4505;43.406;23.226;2022-11-15T03:22:44;100618.94;;;8.83;100.00
8941;BME280;4505;43.406;23.226;2022-11-15T03:25:13;100613.84;;;8.95;100.00
8941;BME280;4505;43.406;23.226;2022-11-15T03:27:43;100611.00;;;8.96;100.00
8941;BME280;4505;43.406;23.226;2022-11-15T03:30:13;100599.59;;;8.83;100.00
8941;BME280;4505;43.406;23.226;2022-11-15T03:32:41;100604.72;;;8.97;100.00
8941;BME280;4505;43.406;23.226;2022-11-15T03:35:11;100599.41;;;8.97;100.00
8941;BME280;4505;43.406;23.226;2022-11-15T03:37:41;100594.00;;;8.58;100.00
8941;BME280;4505;43.406;23.226;2022-11-15T03:40:10;100596.69;;;8.71;100.00
8941;BME280;4505;43.406;23.226;2022-11-15T03:42:38;100591.78;;;8.61;100.00
8941;BME280;4505;43.406;23.226;2022-11-15T03:45:10;100582.44;;;8.72;100.00
8941;BME280;4505;43.406;23.226;2022-11-15T03:47:40;100580.78;;;8.64;100.00
8941;BME280;4505;43.406;23.226;2022-11-15T03:50:10;100582.84;;;8.69;100.00
8941;BME280;4505;43.406;23.226;2022-11-15T03:52:38;100573.50;;;8.80;100.00
8941;BME280;4505;43.406;23.226;2022-11-15T03:55:08;100574.31;;;8.80;100.00
8941;BME280;4505;43.406;23.226;2022-11-15T03:57:36;100574.69;;;8.77;100.00
8941;BME280;4505;43.406;23.226;2022-11-15T04:00:04;100573.69;;;8.72;100.00
8941;BME280;4505;43.406;23.226;2022-11-15T04:02:31;100573.53;;;8.86;100.00
8941;BME280;4505;43.406;23.226;2022-11-15T04:04:57;100575.75;;;8.83;100.00
8941;BME280;4505;43.406;23.226;2022-11-15T04:07:24;100572.47;;;8.81;100.00
8941;BME280;4505;43.406;23.226;2022-11-15T04:09:51;100568.16;;;8.66;100.00
8941;BME280;4505;43.406;23.226;2022-11-15T04:12:32;100569.28;;;8.31;100.00
8941;BME280;4505;43.406;23.226;2022-11-15T04:15:03;100569.59;;;8.15;100.00
8941;BME280;4505;43.406;23.226;2022-11-15T04:17:34;100565.81;;;8.31;100.00
8941;BME280;4505;43.406;23.226;2022-11-15T04:20:00;100567.47;;;8.45;100.00
8941;BME280;4505;43.406;23.226;2022-11-15T04:22:44;100565.06;;;8.50;100.00
8941;BME280;4505;43.406;23.226;2022-11-15T04:25:30;100559.41;;;8.73;100.00
8941;BME280;4505;43.406;23.226;2022-11-15T04:27:58;100553.09;;;8.73;100.00
8941;BME280;4505;43.406;23.226;2022-11-15T04:30:25;100554.16;;;8.86;100.00
8941;BME280;4505;43.406;23.226;2022-11-15T04:32:51;100558.22;;;8.75;100.00
8941;BME280;4505;43.406;23.226;2022-11-15T04:35:18;100546.19;;;8.73;100.00
8941;BME280;4505;43.406;23.226;2022-11-15T04:37:45;100549.47;;;8.88;100.00
8941;BME280;4505;43.406;23.226;2022-11-15T04:40:11;100552.16;;;9.01;100.00
8941;BME280;4505;43.406;23.226;2022-11-15T04:42:40;100554.97;;;8.86;100.00
8941;BME280;4505;43.406;23.226;2022-11-15T04:45:08;100549.25;;;8.76;100.00
8941;BME280;4505;43.406;23.226;2022-11-15T04:47:35;100555.78;;;8.93;100.00
8941;BME280;4505;43.406;23.226;2022-11-15T04:50:02;100548.88;;;8.92;100.00
8941;BME280;4505;43.406;23.226;2022-11-15T04:52:28;100554.09;;;8.66;100.00
8941;BME280;4505;43.406;23.226;2022-11-15T04:54:55;100546.84;;;8.88;100.00
8941;BME280;4505;43.406;23.226;2022-11-15T04:57:22;100547.84;;;8.93;100.00
8941;BME280;4505;43.406;23.226;2022-11-15T04:59:48;100549.91;;;8.91;100.00
8941;BME280;4505;43.406;23.226;2022-11-15T05:02:16;100543.75;;;8.71;100.00
8941;BME280;4505;43.406;23.226;2022-11-15T05:04:45;100542.31;;;8.88;100.00
8941;BME280;4505;43.406;23.226;2022-11-15T05:07:10;100539.31;;;8.91;100.00
8941;BME280;4505;43.406;23.226;2022-11-15T05:09:37;100535.81;;;8.84;100.00
8941;BME280;4505;43.406;23.226;2022-11-15T05:12:06;100536.44;;;8.93;100.00
8941;BME280;4505;43.406;23.226;2022-11-15T05:14:43;100538.88;;;8.88;100.00
8941;BME280;4505;43.406;23.226;2022-11-15T05:17:10;100537.88;;;9.02;100.00
8941;BME280;4505;43.406;23.226;2022-11-15T05:19:38;100530.31;;;8.92;100.00
8941;BME280;4505;43.406;23.226;2022-11-15T05:22:05;100535.59;;;8.79;100.00
8941;BME280;4505;43.406;23.226;2022-11-15T05:24:31;100530.34;;;9.05;100.00
8941;BME280;4505;43.406;23.226;2022-11-15T05:26:58;100535.78;;;8.64;100.00
8941;BME280;4505;43.406;23.226;2022-11-15T05:29:25;100533.75;;;8.60;100.00
8941;BME280;4505;43.406;23.226;2022-11-15T05:31:52;100542.53;;;8.20;100.00
8941;BME280;4505;43.406;23.226;2022-11-15T05:34:19;100537.94;;;8.41;100.00
8941;BME280;4505;43.406;23.226;2022-11-15T05:36:49;100542.25;;;8.02;100.00
8941;BME280;4505;43.406;23.226;2022-11-15T05:39:15;100537.34;;;7.99;100.00
8941;BME280;4505;43.406;23.226;2022-11-15T05:41:43;100540.16;;;8.31;100.00
8941;BME280;4505;43.406;23.226;2022-11-15T05:44:23;100550.25;;;8.62;100.00
8941;BME280;4505;43.406;23.226;2022-11-15T05:46:51;100550.81;;;8.51;100.00
8941;BME280;4505;43.406;23.226;2022-11-15T05:49:20;100546.63;;;8.83;100.00
8941;BME280;4505;43.406;23.226;2022-11-15T05:51:49;100539.47;;;8.96;100.00
8941;BME280;4505;43.406;23.226;2022-11-15T05:54:17;100538.06;;;9.00;100.00
8941;BME280;4505;43.406;23.226;2022-11-15T05:56:46;100546.44;;;8.91;100.00
8941;BME280;4505;43.406;23.226;2022-11-15T05:59:12;100547.84;;;9.06;100.00
8941;BME280;4505;43.406;23.226;2022-11-15T06:01:39;100548.69;;;9.00;100.00
8941;BME280;4505;43.406;23.226;2022-11-15T06:04:06;100556.63;;;8.94;100.00
8941;BME280;4505;43.406;23.226;2022-11-15T06:06:36;100541.16;;;9.04;100.00
8941;BME280;4505;43.406;23.226;2022-11-15T06:09:05;100543.78;;;9.04;100.00
8941;BME280;4505;43.406;23.226;2022-11-15T06:11:32;100545.41;;;9.11;100.00
8941;BME280;4505;43.406;23.226;2022-11-15T06:13:58;100542.97;;;9.16;100.00
8941;BME280;4505;43.406;23.226;2022-11-15T06:16:25;100544.22;;;9.07;100.00
8941;BME280;4505;43.406;23.226;2022-11-15T06:18:52;100543.81;;;9.10;100.00
8941;BME280;4505;43.406;23.226;2022-11-15T06:21:18;100533.78;;;9.12;100.00
8941;BME280;4505;43.406;23.226;2022-11-15T06:23:45;100543.78;;;9.30;100.00
8941;BME280;4505;43.406;23.226;2022-11-15T06:26:13;100543.97;;;9.35;100.00
8941;BME280;4505;43.406;23.226;2022-11-15T06:28:39;100535.25;;;9.21;100.00
8941;BME280;4505;43.406;23.226;2022-11-15T06:31:07;100545.78;;;8.82;100.00
8941;BME280;4505;43.406;23.226;2022-11-15T06:33:34;100540.72;;;9.00;100.00
8941;BME280;4505;43.406;23.226;2022-11-15T06:36:01;100536.25;;;9.27;100.00
8941;BME280;4505;43.406;23.226;2022-11-15T06:38:28;100539.31;;;9.43;100.00
8941;BME280;4505;43.406;23.226;2022-11-15T06:40:55;100535.03;;;9.29;100.00
8941;BME280;4505;43.406;23.226;2022-11-15T06:43:23;100534.41;;;9.40;100.00
8941;BME280;4505;43.406;23.226;2022-11-15T06:45:49;100533.59;;;9.27;100.00
8941;BME280;4505;43.406;23.226;2022-11-15T06:48:16;100534.41;;;9.47;100.00
8941;BME280;4505;43.406;23.226;2022-11-15T06:50:43;100535.41;;;9.59;100.00
8941;BME280;4505;43.406;23.226;2022-11-15T06:53:30;100535.41;;;9.59;100.00
8941;BME280;4505;43.406;23.226;2022-11-15T06:55:58;100538.47;;;9.49;100.00
8941;BME280;4505;43.406;23.226;2022-11-15T06:58:26;100536.44;;;9.51;100.00
8941;BME280;4505;43.406;23.226;2022-11-15T07:00:53;100539.72;;;9.34;100.00
8941;BME280;4505;43.406;23.226;2022-11-15T07:03:20;100526.88;;;9.44;100.00
8941;BME280;4505;43.406;23.226;2022-11-15T07:05:50;100528.31;;;9.01;100.00
8941;BME280;4505;43.406;23.226;2022-11-15T07:08:17;100526.66;;;9.39;100.00
8941;BME280;4505;43.406;23.226;2022-11-15T07:10:44;100529.06;;;8.82;100.00
8941;BME280;4505;43.406;23.226;2022-11-15T07:13:13;100529.66;;;8.70;100.00
8941;BME280;4505;43.406;23.226;2022-11-15T07:15:41;100526.88;;;8.98;100.00
8941;BME280;4505;43.406;23.226;2022-11-15T07:18:11;100527.09;;;9.23;100.00
8941;BME280;4505;43.406;23.226;2022-11-15T07:20:38;100527.50;;;9.33;100.00
8941;BME280;4505;43.406;23.226;2022-11-15T07:23:08;100528.28;;;9.33;100.00
8941;BME280;4505;43.406;23.226;2022-11-15T07:25:34;100536.03;;;9.28;100.00
8941;BME280;4505;43.406;23.226;2022-11-15T07:28:01;100525.44;;;9.28;100.00
8941;BME280;4505;43.406;23.226;2022-11-15T07:30:28;100530.13;;;9.39;100.00
8941;BME280;4505;43.406;23.226;2022-11-15T07:32:59;100530.72;;;9.54;100.00
8941;BME280;4505;43.406;23.226;2022-11-15T07:35:29;100529.31;;;9.39;100.00
8941;BME280;4505;43.406;23.226;2022-11-15T07:37:56;100527.22;;;9.73;100.00
8941;BME280;4505;43.406;23.226;2022-11-15T07:40:23;100527.84;;;9.69;100.00
8941;BME280;4505;43.406;23.226;2022-11-15T07:42:50;100520.81;;;9.94;100.00
8941;BME280;4505;43.406;23.226;2022-11-15T07:45:21;100515.38;;;9.76;100.00
8941;BME280;4505;43.406;23.226;2022-11-15T07:47:48;100517.44;;;9.61;100.00
8941;BME280;4505;43.406;23.226;2022-11-15T07:50:17;100526.66;;;9.32;100.00
8941;BME280;4505;43.406;23.226;2022-11-15T07:52:44;100525.03;;;9.31;100.00
8941;BME280;4505;43.406;23.226;2022-11-15T07:55:10;100518.91;;;9.57;100.00
8941;BME280;4505;43.406;23.226;2022-11-15T07:57:37;100514.03;;;9.28;100.00
8941;BME280;4505;43.406;23.226;2022-11-15T08:00:04;100515.00;;;9.59;100.00
8941;BME280;4505;43.406;23.226;2022-11-15T08:02:31;100510.75;;;9.39;100.00
8941;BME280;4505;43.406;23.226;2022-11-15T08:04:58;100510.16;;;9.30;100.00
8941;BME280;4505;43.406;23.226;2022-11-15T08:07:29;100513.41;;;9.39;100.00
8941;BME280;4505;43.406;23.226;2022-11-15T08:09:56;100505.47;;;9.39;100.00
8941;BME280;4505;43.406;23.226;2022-11-15T08:12:23;100505.03;;;9.48;100.00
8941;BME280;4505;43.406;23.226;2022-11-15T08:14:50;100510.28;;;9.74;100.00
8941;BME280;4505;43.406;23.226;2022-11-15T08:17:17;100496.56;;;9.97;100.00
8941;BME280;4505;43.406;23.226;2022-11-15T08:19:43;100496.28;;;9.41;100.00
8941;BME280;4505;43.406;23.226;2022-11-15T08:22:10;100499.50;;;9.69;100.00
8941;BME280;4505;43.406;23.226;2022-11-15T08:24:38;100487.00;;;9.76;100.00
8941;BME280;4505;43.406;23.226;2022-11-15T08:27:05;100488.25;;;9.74;100.00
8941;BME280;4505;43.406;23.226;2022-11-15T08:29:40;100487.50;;;9.47;100.00
8941;BME280;4505;43.406;23.226;2022-11-15T08:32:06;100496.41;;;9.79;100.00
8941;BME280;4505;43.406;23.226;2022-11-15T08:34:33;100491.78;;;9.55;100.00
8941;BME280;4505;43.406;23.226;2022-11-15T08:37:00;100487.50;;;9.47;100.00
8941;BME280;4505;43.406;23.226;2022-11-15T08:39:27;100491.75;;;9.61;100.00
8941;BME280;4505;43.406;23.226;2022-11-15T08:41:55;100487.66;;;9.65;100.00
8941;BME280;4505;43.406;23.226;2022-11-15T08:44:21;100489.50;;;9.65;100.00
8941;BME280;4505;43.406;23.226;2022-11-15T08:46:49;100478.06;;;9.64;100.00
8941;BME280;4505;43.406;23.226;2022-11-15T08:49:16;100471.31;;;9.68;100.00
8941;BME280;4505;43.406;23.226;2022-11-15T08:51:42;100473.06;;;9.94;100.00
8941;BME280;4505;43.406;23.226;2022-11-15T08:54:09;100471.66;;;9.91;100.00
8941;BME280;4505;43.406;23.226;2022-11-15T08:56:35;100475.69;;;9.43;100.00
8941;BME280;4505;43.406;23.226;2022-11-15T08:59:03;100480.56;;;9.53;100.00
8941;BME280;4505;43.406;23.226;2022-11-15T09:01:30;100469.84;;;9.92;100.00
8941;BME280;4505;43.406;23.226;2022-11-15T09:03:57;100478.69;;;9.73;100.00
8941;BME280;4505;43.406;23.226;2022-11-15T09:06:24;100469.84;;;9.85;100.00
8941;BME280;4505;43.406;23.226;2022-11-15T09:08:51;100465.72;;;9.96;100.00
8941;BME280;4505;43.406;23.226;2022-11-15T09:11:17;100461.03;;;9.98;100.00
8941;BME280;4505;43.406;23.226;2022-11-15T09:13:46;100467.47;;;9.64;100.00
8941;BME280;4505;43.406;23.226;2022-11-15T09:16:14;100456.72;;;9.33;100.00
8941;BME280;4505;43.406;23.226;2022-11-15T09:18:41;100458.13;;;9.55;100.00
8941;BME280;4505;43.406;23.226;2022-11-15T09:21:10;100449.09;;;9.69;100.00
8941;BME280;4505;43.406;23.226;2022-11-15T09:23:37;100444.66;;;9.57;100.00
8941;BME280;4505;43.406;23.226;2022-11-15T09:26:04;100439.16;;;9.52;100.00
8941;BME280;4505;43.406;23.226;2022-11-15T09:28:32;100435.63;;;9.71;100.00
8941;BME280;4505;43.406;23.226;2022-11-15T09:31:01;100430.28;;;9.84;100.00
8941;BME280;4505;43.406;23.226;2022-11-15T09:33:29;100419.19;;;10.00;100.00
8941;BME280;4505;43.406;23.226;2022-11-15T09:35:59;100422.25;;;9.97;100.00
8941;BME280;4505;43.406;23.226;2022-11-15T09:38:26;100417.50;;;10.12;100.00
8941;BME280;4505;43.406;23.226;2022-11-15T09:40:55;100416.84;;;9.72;100.00
8941;BME280;4505;43.406;23.226;2022-11-15T09:43:32;100414.91;;;9.42;100.00
8941;BME280;4505;43.406;23.226;2022-11-15T09:46:04;100419.44;;;9.85;100.00
8941;BME280;4505;43.406;23.226;2022-11-15T09:48:46;100417.66;;;8.50;100.00
8941;BME280;4505;43.406;23.226;2022-11-15T09:51:18;100416.63;;;8.64;100.00
8941;BME280;4505;43.406;23.226;2022-11-15T09:53:48;100412.97;;;8.98;100.00
8941;BME280;4505;43.406;23.226;2022-11-15T09:56:19;100406.38;;;9.33;100.00
8941;BME280;4505;43.406;23.226;2022-11-15T09:58:47;100399.66;;;9.37;100.00
8941;BME280;4505;43.406;23.226;2022-11-15T10:01:19;100400.28;;;9.33;100.00
8941;BME280;4505;43.406;23.226;2022-11-15T10:03:51;100405.59;;;9.26;100.00
8941;BME280;4505;43.406;23.226;2022-11-15T10:06:25;100394.66;;;9.60;100.00
8941;BME280;4505;43.406;23.226;2022-11-15T10:08:54;100396.75;;;9.52;100.00
8941;BME280;4505;43.406;23.226;2022-11-15T10:11:27;100386.84;;;9.78;100.00
8941;BME280;4505;43.406;23.226;2022-11-15T10:13:57;100375.25;;;9.73;100.00
8941;BME280;4505;43.406;23.226;2022-11-15T10:16:29;100379.69;;;9.79;100.00
8941;BME280;4505;43.406;23.226;2022-11-15T10:19:03;100380.34;;;10.12;100.00
8941;BME280;4505;43.406;23.226;2022-11-15T10:21:35;100373.00;;;10.14;100.00
8941;BME280;4505;43.406;23.226;2022-11-15T10:26:36;100372.22;;;9.63;100.00
8941;BME280;4505;43.406;23.226;2022-11-15T10:29:20;100378.78;;;9.54;100.00
8941;BME280;4505;43.406;23.226;2022-11-15T10:31:46;100368.44;;;9.83;100.00
8941;BME280;4505;43.406;23.226;2022-11-15T10:34:15;100364.03;;;9.71;100.00
8941;BME280;4505;43.406;23.226;2022-11-15T10:36:44;100352.31;;;9.85;100.00
8941;BME280;4505;43.406;23.226;2022-11-15T10:39:11;100358.06;;;9.82;100.00
8941;BME280;4505;43.406;23.226;2022-11-15T10:41:38;100351.97;;;10.13;100.00
8941;BME280;4505;43.406;23.226;2022-11-15T10:44:17;100338.97;;;9.98;100.00
8941;BME280;4505;43.406;23.226;2022-11-15T10:46:45;100337.38;;;10.28;100.00
8941;BME280;4505;43.406;23.226;2022-11-15T10:49:15;100341.47;;;9.55;100.00
8941;BME280;4505;43.406;23.226;2022-11-15T10:51:43;100336.09;;;9.18;100.00
8941;BME280;4505;43.406;23.226;2022-11-15T10:54:10;100341.63;;;9.03;100.00
8941;BME280;4505;43.406;23.226;2022-11-15T10:56:38;100337.56;;;9.58;100.00
8941;BME280;4505;43.406;23.226;2022-11-15T10:59:07;100331.94;;;9.35;100.00
8941;BME280;4505;43.406;23.226;2022-11-15T11:01:45;100320.91;;;9.44;100.00
8941;BME280;4505;43.406;23.226;2022-11-15T11:04:12;100322.81;;;9.24;100.00
8941;BME280;4505;43.406;23.226;2022-11-15T11:06:47;100317.44;;;9.44;100.00
8941;BME280;4505;43.406;23.226;2022-11-15T11:09:21;100319.06;;;9.45;100.00
8941;BME280;4505;43.406;23.226;2022-11-15T11:11:50;100317.84;;;8.64;100.00
8941;BME280;4505;43.406;23.226;2022-11-15T11:14:19;100312.81;;;8.43;100.00
8941;BME280;4505;43.406;23.226;2022-11-15T11:16:50;100311.56;;;8.78;100.00
8941;BME280;4505;43.406;23.226;2022-11-15T11:19:31;100302.50;;;9.12;100.00
8941;BME280;4505;43.406;23.226;2022-11-15T11:22:05;100301.53;;;9.50;100.00
8941;BME280;4505;43.406;23.226;2022-11-15T11:24:42;100302.28;;;9.57;100.00
8941;BME280;4505;43.406;23.226;2022-11-15T11:27:18;100292.56;;;9.82;100.00
8941;BME280;4505;43.406;23.226;2022-11-15T11:29:54;100291.06;;;9.93;100.00
8941;BME280;4505;43.406;23.226;2022-11-15T11:32:29;100286.19;;;9.90;100.00
8941;BME280;4505;43.406;23.226;2022-11-15T11:35:02;100287.31;;;10.00;100.00
8941;BME280;4505;43.406;23.226;2022-11-15T11:37:36;100277.41;;;9.89;100.00
8941;BME280;4505;43.406;23.226;2022-11-15T11:40:10;100278.94;;;10.03;100.00
8941;BME280;4505;43.406;23.226;2022-11-15T11:42:40;100281.25;;;9.62;100.00
8941;BME280;4505;43.406;23.226;2022-11-15T11:45:14;100278.72;;;9.36;100.00
8941;BME280;4505;43.406;23.226;2022-11-15T11:47:44;100273.56;;;9.48;100.00
8941;BME280;4505;43.406;23.226;2022-11-15T11:50:14;100278.34;;;9.39;100.00
8941;BME280;4505;43.406;23.226;2022-11-15T11:52:49;100278.47;;;9.00;100.00
8941;BME280;4505;43.406;23.226;2022-11-15T11:55:24;100269.41;;;9.27;100.00
8941;BME280;4505;43.406;23.226;2022-11-15T11:57:56;100266.16;;;9.63;100.00
8941;BME280;4505;43.406;23.226;2022-11-15T12:00:26;100269.19;;;9.97;100.00
8941;BME280;4505;43.406;23.226;2022-11-15T12:02:59;100260.31;;;9.85;100.00
8941;BME280;4505;43.406;23.226;2022-11-15T12:05:30;100257.69;;;10.10;100.00
8941;BME280;4505;43.406;23.226;2022-11-15T12:08:02;100252.41;;;10.03;100.00
8941;BME280;4505;43.406;23.226;2022-11-15T12:10:37;100254.13;;;9.91;100.00
8941;BME280;4505;43.406;23.226;2022-11-15T12:13:06;100251.31;;;10.18;100.00
8941;BME280;4505;43.406;23.226;2022-11-15T12:15:37;100241.25;;;9.95;100.00
8941;BME280;4505;43.406;23.226;2022-11-15T12:18:07;100241.59;;;9.74;100.00
8941;BME280;4505;43.406;23.226;2022-11-15T12:20:35;100241.91;;;9.90;100.00
8941;BME280;4505;43.406;23.226;2022-11-15T12:23:05;100237.47;;;9.53;100.00
8941;BME280;4505;43.406;23.226;2022-11-15T12:25:36;100238.47;;;9.15;100.00
8941;BME280;4505;43.406;23.226;2022-11-15T12:28:08;100238.03;;;9.24;100.00
8941;BME280;4505;43.406;23.226;2022-11-15T12:30:42;100236.44;;;9.54;100.00
8941;BME280;4505;43.406;23.226;2022-11-15T12:35:57;100237.06;;;9.12;100.00
8941;BME280;4505;43.406;23.226;2022-11-15T12:41:13;100237.59;;;9.27;100.00
8941;BME280;4505;43.406;23.226;2022-11-15T12:43:41;100229.97;;;9.06;100.00
8941;BME280;4505;43.406;23.226;2022-11-15T12:46:13;100233.41;;;9.13;100.00
8941;BME280;4505;43.406;23.226;2022-11-15T12:59:50;100223.94;;;9.61;100.00
8941;BME280;4505;43.406;23.226;2022-11-15T13:02:18;100218.16;;;9.40;100.00
8941;BME280;4505;43.406;23.226;2022-11-15T13:04:46;100218.97;;;9.40;100.00
8941;BME280;4505;43.406;23.226;2022-11-15T13:07:54;100221.44;;;9.35;100.00
8941;BME280;4505;43.406;23.226;2022-11-15T13:13:04;100212.91;;;9.64;100.00
8941;BME280;4505;43.406;23.226;2022-11-15T13:15:51;100209.97;;;9.48;100.00
8941;BME280;4505;43.406;23.226;2022-11-15T13:18:26;100203.25;;;9.45;100.00
8941;BME280;4505;43.406;23.226;2022-11-15T13:20:53;100200.25;;;9.66;100.00
8941;BME280;4505;43.406;23.226;2022-11-15T13:23:23;100201.44;;;9.70;100.00
8941;BME280;4505;43.406;23.226;2022-11-15T13:28:47;100201.66;;;9.69;100.00
8941;BME280;4505;43.406;23.226;2022-11-15T13:31:21;100200.19;;;9.48;100.00
8941;BME280;4505;43.406;23.226;2022-11-15T13:33:49;100196.56;;;9.36;100.00
8941;BME280;4505;43.406;23.226;2022-11-15T13:36:18;100195.53;;;9.44;100.00
8941;BME280;4505;43.406;23.226;2022-11-15T13:38:53;100199.66;;;9.33;100.00
8941;BME280;4505;43.406;23.226;2022-11-15T13:41:21;100194.78;;;9.61;100.00
8941;BME280;4505;43.406;23.226;2022-11-15T13:43:48;100194.09;;;9.72;100.00